sensor_id;sensor_type;location;lat;lon;timestamp;pressure;altitude;pressure_sealevel;temperature;humidity
34925;BME280;21130;51.728;8.748;2023-05-20T00:01:49;101171.03;;;7.99;100.00
34925;BME280;21130;51.728;8.748;2023-05-20T00:04:15;101179.13;;;8.01;100.00
34925;BME280;21130;51.728;8.748;2023-05-20T00:06:41;101158.09;;;8.00;100.00
34925;BME280;21130;51.728;8.748;2023-05-20T00:09:08;101166.13;;;7.95;100.00
34925;BME280;21130;51.728;8.748;2023-05-20T00:11:35;101158.50;;;7.90;100.00
34925;BME280;21130;51.728;8.748;2023-05-20T00:14:02;101167.63;;;7.91;100.00
34925;BME280;21130;51.728;8.748;2023-05-20T00:16:29;101154.03;;;7.89;100.00
34925;BME280;21130;51.728;8.748;2023-05-20T00:19:13;101163.63;;;8.00;100.00
34925;BME280;21130;51.728;8.748;2023-05-20T00:21:40;101161.88;;;7.92;100.00
34925;BME280;21130;51.728;8.748;2023-05-20T00:24:07;101159.78;;;7.88;100.00
34925;BME280;21130;51.728;8.748;2023-05-20T00:26:33;101151.69;;;7.86;100.00
34925;BME280;21130;51.728;8.748;2023-05-20T00:28:59;101148.91;;;7.79;100.00
34925;BME280;21130;51.728;8.748;2023-05-20T00:31:27;101141.47;;;7.73;100.00
34925;BME280;21130;51.728;8.748;2023-05-20T00:33:54;101150.59;;;7.74;100.00
34925;BME280;21130;51.728;8.748;2023-05-20T00:36:20;101149.97;;;7.72;100.00
34925;BME280;21130;51.728;8.748;2023-05-20T00:38:46;101149.53;;;7.62;100.00
34925;BME280;21130;51.728;8.748;2023-05-20T00:41:13;101153.78;;;7.57;100.00
34925;BME280;21130;51.728;8.748;2023-05-20T00:43:40;101151.00;;;7.51;100.00
34925;BME280;21130;51.728;8.748;2023-05-20T00:46:06;101150.97;;;7.44;100.00
34925;BME280;21130;51.728;8.748;2023-05-20T00:48:39;101157.34;;;7.38;100.00
34925;BME280;21130;51.728;8.748;2023-05-20T00:51:06;101152.63;;;7.32;100.00
34925;BME280;21130;51.728;8.748;2023-05-20T00:53:33;101155.81;;;7.29;100.00
34925;BME280;21130;51.728;8.748;2023-05-20T00:56:00;101158.34;;;7.24;100.00
34925;BME280;21130;51.728;8.748;2023-05-20T00:58:26;101155.34;;;7.19;100.00
34925;BME280;21130;51.728;8.748;2023-05-20T01:00:53;101161.06;;;7.17;100.00
34925;BME280;21130;51.728;8.748;2023-05-20T01:03:20;101155.78;;;7.16;100.00
34925;BME280;21130;51.728;8.748;2023-05-20T01:05:48;101153.22;;;7.14;100.00
34925;BME280;21130;51.728;8.748;2023-05-20T01:08:14;101152.38;;;7.13;100.00
34925;BME280;21130;51.728;8.748;2023-05-20T01:10:41;101151.72;;;7.11;100.00
34925;BME280;21130;51.728;8.748;2023-05-20T01:13:16;101152.56;;;7.05;100.00
34925;BME280;21130;51.728;8.748;2023-05-20T01:15:45;101149.13;;;7.03;100.00
34925;BME280;21130;51.728;8.748;2023-05-20T01:18:13;101154.22;;;7.00;100.00
34925;BME280;21130;51.728;8.748;2023-05-20T01:20:42;101150.81;;;6.98;100.00
34925;BME280;21130;51.728;8.748;2023-05-20T01:23:11;101149.34;;;7.02;100.00
34925;BME280;21130;51.728;8.748;2023-05-20T01:25:39;101146.78;;;7.00;100.00
34925;BME280;21130;51.728;8.748;2023-05-20T01:28:06;101146.16;;;6.98;100.00
34925;BME280;21130;51.728;8.748;2023-05-20T01:30:37;101143.16;;;6.93;100.00
34925;BME280;21130;51.728;8.748;2023-05-20T01:33:08;101141.19;;;6.87;100.00
34925;BME280;21130;51.728;8.748;2023-05-20T01:35:38;101138.19;;;6.82;100.00
34925;BME280;21130;51.728;8.748;2023-05-20T01:38:06;101145.84;;;6.80;100.00
34925;BME280;21130;51.728;8.748;2023-05-20T01:40:34;101139.03;;;6.76;100.00
34925;BME280;21130;51.728;8.748;2023-05-20T01:43:02;101147.50;;;6.74;100.00
34925;BME280;21130;51.728;8.748;2023-05-20T01:45:29;101144.09;;;6.72;100.00
34925;BME280;21130;51.728;8.748;2023-05-20T01:47:56;101141.56;;;6.70;100.00
34925;BME280;21130;51.728;8.748;2023-05-20T01:50:22;101135.22;;;6.77;100.00
34925;BME280;21130;51.728;8.748;2023-05-20T01:52:49;101140.94;;;6.75;100.00
34925;BME280;21130;51.728;8.748;2023-05-20T01:55:15;101135.81;;;6.72;100.00
34925;BME280;21130;51.728;8.748;2023-05-20T01:57:43;101137.72;;;6.71;100.00
34925;BME280;21130;51.728;8.748;2023-05-20T02:00:10;101133.94;;;6.73;100.00
34925;BME280;21130;51.728;8.748;2023-05-20T02:02:36;101131.78;;;6.68;100.00
34925;BME280;21130;51.728;8.748;2023-05-20T02:05:03;101132.38;;;6.63;100.00
34925;BME280;21130;51.728;8.748;2023-05-20T02:07:30;101138.16;;;6.68;100.00
34925;BME280;21130;51.728;8.748;2023-05-20T02:09:57;101130.28;;;6.65;100.00
34925;BME280;21130;51.728;8.748;2023-05-20T02:12:23;101133.03;;;6.65;100.00
34925;BME280;21130;51.728;8.748;2023-05-20T02:14:51;101129.88;;;6.68;100.00
34925;BME280;21130;51.728;8.748;2023-05-20T02:17:17;101130.09;;;6.74;100.00
34925;BME280;21130;51.728;8.748;2023-05-20T02:19:44;101127.06;;;6.62;100.00
34925;BME280;21130;51.728;8.748;2023-05-20T02:22:12;101127.47;;;6.59;100.00
34925;BME280;21130;51.728;8.748;2023-05-20T02:24:39;101130.22;;;6.59;100.00
34925;BME280;21130;51.728;8.748;2023-05-20T02:27:07;101131.06;;;6.59;100.00
34925;BME280;21130;51.728;8.748;2023-05-20T02:29:33;101130.03;;;6.60;100.00
34925;BME280;21130;51.728;8.748;2023-05-20T02:32:01;101121.31;;;6.57;100.00
34925;BME280;21130;51.728;8.748;2023-05-20T02:34:30;101129.59;;;6.57;100.00
34925;BME280;21130;51.728;8.748;2023-05-20T02:36:56;101124.06;;;6.57;100.00
34925;BME280;21130;51.728;8.748;2023-05-20T02:39:22;101120.28;;;6.58;100.00
34925;BME280;21130;51.728;8.748;2023-05-20T02:41:49;101121.78;;;6.60;100.00
34925;BME280;21130;51.728;8.748;2023-05-20T02:44:15;101116.72;;;6.70;100.00
34925;BME280;21130;51.728;8.748;2023-05-20T02:46:42;101111.81;;;6.66;100.00
34925;BME280;21130;51.728;8.748;2023-05-20T02:49:10;101106.91;;;6.61;100.00
34925;BME280;21130;51.728;8.748;2023-05-20T02:51:36;101102.25;;;6.62;100.00
34925;BME280;21130;51.728;8.748;2023-05-20T02:54:03;101109.06;;;6.66;100.00
34925;BME280;21130;51.728;8.748;2023-05-20T02:56:29;101111.41;;;6.69;100.00
34925;BME280;21130;51.728;8.748;2023-05-20T02:58:56;101113.97;;;6.70;100.00
34925;BME280;21130;51.728;8.748;2023-05-20T03:01:23;101107.19;;;6.73;100.00
34925;BME280;21130;51.728;8.748;2023-05-20T03:03:49;101104.84;;;6.70;100.00
34925;BME280;21130;51.728;8.748;2023-05-20T03:06:17;101101.44;;;6.68;100.00
34925;BME280;21130;51.728;8.748;2023-05-20T03:08:44;101103.41;;;6.81;100.00
34925;BME280;21130;51.728;8.748;2023-05-20T03:11:10;101103.88;;;6.91;100.00
34925;BME280;21130;51.728;8.748;2023-05-20T03:13:37;101100.91;;;6.99;100.00
34925;BME280;21130;51.728;8.748;2023-05-20T03:16:03;101099.31;;;7.25;100.00
34925;BME280;21130;51.728;8.748;2023-05-20T03:18:30;101110.75;;;7.22;100.00
34925;BME280;21130;51.728;8.748;2023-05-20T03:20:57;101101.63;;;7.21;100.00
34925;BME280;21130;51.728;8.748;2023-05-20T03:23:25;101108.03;;;7.28;100.00
34925;BME280;21130;51.728;8.748;2023-05-20T03:25:51;101100.16;;;7.32;100.00
34925;BME280;21130;51.728;8.748;2023-05-20T03:28:17;101099.59;;;7.50;100.00
34925;BME280;21130;51.728;8.748;2023-05-20T03:30:44;101103.56;;;7.34;100.00
34925;BME280;21130;51.728;8.748;2023-05-20T03:33:10;101104.41;;;7.34;100.00
34925;BME280;21130;51.728;8.748;2023-05-20T03:35:38;101108.88;;;7.29;100.00
34925;BME280;21130;51.728;8.748;2023-05-20T03:38:04;101113.56;;;7.42;100.00
34925;BME280;21130;51.728;8.748;2023-05-20T03:40:32;101114.25;;;7.50;100.00
34925;BME280;21130;51.728;8.748;2023-05-20T03:42:58;101106.41;;;7.61;100.00
34925;BME280;21130;51.728;8.748;2023-05-20T03:45:25;101108.50;;;7.72;100.00
34925;BME280;21130;51.728;8.748;2023-05-20T03:47:52;101096.19;;;7.81;100.00
34925;BME280;21130;51.728;8.748;2023-05-20T03:50:18;101093.66;;;7.86;100.00
34925;BME280;21130;51.728;8.748;2023-05-20T03:52:44;101090.47;;;7.89;100.00
34925;BME280;21130;51.728;8.748;2023-05-20T03:55:11;101089.41;;;7.90;100.00
34925;BME280;21130;51.728;8.748;2023-05-20T03:57:39;101086.84;;;7.95;100.00
34925;BME280;21130;51.728;8.748;2023-05-20T04:00:07;101094.91;;;8.23;100.00
34925;BME280;21130;51.728;8.748;2023-05-20T04:02:38;101092.13;;;8.43;100.00
34925;BME280;21130;51.728;8.748;2023-05-20T04:05:06;101093.81;;;8.58;100.00
34925;BME280;21130;51.728;8.748;2023-05-20T04:07:34;101081.84;;;8.64;100.00
34925;BME280;21130;51.728;8.748;2023-05-20T04:10:01;101077.34;;;8.70;100.00
34925;BME280;21130;51.728;8.748;2023-05-20T04:12:28;101086.03;;;8.86;100.00
34925;BME280;21130;51.728;8.748;2023-05-20T04:14:57;101080.97;;;9.15;100.00
34925;BME280;21130;51.728;8.748;2023-05-20T04:17:25;101077.84;;;9.43;100.00
34925;BME280;21130;51.728;8.748;2023-05-20T04:19:52;101078.03;;;9.48;100.00
34925;BME280;21130;51.728;8.748;2023-05-20T04:22:19;101083.25;;;9.63;100.00
34925;BME280;21130;51.728;8.748;2023-05-20T04:24:45;101084.22;;;9.76;100.00
34925;BME280;21130;51.728;8.748;2023-05-20T04:27:12;101086.78;;;9.95;100.00
34925;BME280;21130;51.728;8.748;2023-05-20T04:29:38;101080.31;;;10.08;100.00
34925;BME280;21130;51.728;8.748;2023-05-20T04:32:07;101080.78;;;10.24;100.00
34925;BME280;21130;51.728;8.748;2023-05-20T04:34:34;101080.53;;;10.25;100.00
34925;BME280;21130;51.728;8.748;2023-05-20T04:37:01;101077.38;;;10.28;100.00
34925;BME280;21130;51.728;8.748;2023-05-20T04:39:28;101077.53;;;10.33;100.00
34925;BME280;21130;51.728;8.748;2023-05-20T04:41:54;101072.97;;;10.39;100.00
34925;BME280;21130;51.728;8.748;2023-05-20T04:44:21;101071.63;;;10.48;100.00
34925;BME280;21130;51.728;8.748;2023-05-20T04:46:48;101074.13;;;10.50;100.00
34925;BME280;21130;51.728;8.748;2023-05-20T04:49:17;101076.38;;;10.59;100.00
34925;BME280;21130;51.728;8.748;2023-05-20T04:51:43;101078.53;;;10.57;100.00
34925;BME280;21130;51.728;8.748;2023-05-20T04:54:11;101077.16;;;10.67;100.00
34925;BME280;21130;51.728;8.748;2023-05-20T04:56:38;101079.09;;;10.66;100.00
34925;BME280;21130;51.728;8.748;2023-05-20T04:59:05;101082.88;;;10.72;100.00
34925;BME280;21130;51.728;8.748;2023-05-20T05:01:31;101072.22;;;10.69;100.00
34925;BME280;21130;51.728;8.748;2023-05-20T05:03:58;101080.25;;;10.77;100.00
34925;BME280;21130;51.728;8.748;2023-05-20T05:06:25;101077.38;;;10.84;100.00
34925;BME280;21130;51.728;8.748;2023-05-20T05:08:52;101081.63;;;10.86;100.00
34925;BME280;21130;51.728;8.748;2023-05-20T05:11:18;101080.22;;;10.95;100.00
34925;BME280;21130;51.728;8.748;2023-05-20T05:13:45;101073.75;;;11.01;100.00
34925;BME280;21130;51.728;8.748;2023-05-20T05:16:11;101079.31;;;11.13;100.00
34925;BME280;21130;51.728;8.748;2023-05-20T05:18:38;101077.88;;;11.11;100.00
34925;BME280;21130;51.728;8.748;2023-05-20T05:21:05;101075.72;;;11.13;100.00
34925;BME280;21130;51.728;8.748;2023-05-20T05:23:33;101078.00;;;11.16;100.00
34925;BME280;21130;51.728;8.748;2023-05-20T05:25:59;101084.31;;;11.23;100.00
34925;BME280;21130;51.728;8.748;2023-05-20T05:28:25;101090.34;;;11.20;100.00
34925;BME280;21130;51.728;8.748;2023-05-20T05:30:53;101083.88;;;11.26;100.00
34925;BME280;21130;51.728;8.748;2023-05-20T05:33:20;101083.75;;;11.33;100.00
34925;BME280;21130;51.728;8.748;2023-05-20T05:35:46;101089.13;;;11.46;100.00
34925;BME280;21130;51.728;8.748;2023-05-20T05:38:12;101088.41;;;11.51;100.00
34925;BME280;21130;51.728;8.748;2023-05-20T05:40:40;101089.16;;;11.58;100.00
34925;BME280;21130;51.728;8.748;2023-05-20T05:43:07;101086.78;;;11.61;100.00
34925;BME280;21130;51.728;8.748;2023-05-20T05:45:33;101083.25;;;11.66;100.00
34925;BME280;21130;51.728;8.748;2023-05-20T05:48:00;101082.19;;;11.67;100.00
34925;BME280;21130;51.728;8.748;2023-05-20T05:50:26;101088.09;;;11.71;100.00
34925;BME280;21130;51.728;8.748;2023-05-20T05:52:53;101094.81;;;11.81;100.00
34925;BME280;21130;51.728;8.748;2023-05-20T05:55:19;101085.97;;;11.84;100.00
34925;BME280;21130;51.728;8.748;2023-05-20T05:57:49;101093.16;;;11.92;100.00
34925;BME280;21130;51.728;8.748;2023-05-20T06:00:16;101074.53;;;11.93;100.00
34925;BME280;21130;51.728;8.748;2023-05-20T06:02:42;101072.00;;;12.03;100.00
34925;BME280;21130;51.728;8.748;2023-05-20T06:05:09;101072.97;;;11.97;100.00
34925;BME280;21130;51.728;8.748;2023-05-20T06:07:35;101068.38;;;12.14;100.00
34925;BME280;21130;51.728;8.748;2023-05-20T06:10:02;101064.63;;;12.20;100.00
34925;BME280;21130;51.728;8.748;2023-05-20T06:12:28;101065.72;;;12.19;100.00
34925;BME280;21130;51.728;8.748;2023-05-20T06:14:56;101070.78;;;12.22;100.00
34925;BME280;21130;51.728;8.748;2023-05-20T06:17:23;101070.31;;;12.25;100.00
34925;BME280;21130;51.728;8.748;2023-05-20T06:19:49;101073.22;;;12.42;100.00
34925;BME280;21130;51.728;8.748;2023-05-20T06:22:16;101077.31;;;12.40;100.00
34925;BME280;21130;51.728;8.748;2023-05-20T06:24:42;101069.31;;;12.43;100.00
34925;BME280;21130;51.728;8.748;2023-05-20T06:27:08;101065.31;;;12.51;100.00
34925;BME280;21130;51.728;8.748;2023-05-20T06:29:35;101073.06;;;12.61;100.00
34925;BME280;21130;51.728;8.748;2023-05-20T06:32:03;101066.66;;;12.60;100.00
34925;BME280;21130;51.728;8.748;2023-05-20T06:34:29;101069.53;;;12.65;100.00
34925;BME280;21130;51.728;8.748;2023-05-20T06:36:56;101064.69;;;12.72;100.00
34925;BME280;21130;51.728;8.748;2023-05-20T06:39:23;101068.91;;;12.75;100.00
34925;BME280;21130;51.728;8.748;2023-05-20T06:41:50;101059.81;;;12.80;100.00
34925;BME280;21130;51.728;8.748;2023-05-20T06:44:18;101062.72;;;12.85;100.00
34925;BME280;21130;51.728;8.748;2023-05-20T06:46:44;101069.00;;;12.92;100.00
34925;BME280;21130;51.728;8.748;2023-05-20T06:49:12;101062.22;;;12.88;100.00
34925;BME280;21130;51.728;8.748;2023-05-20T06:51:38;101060.66;;;12.92;100.00
34925;BME280;21130;51.728;8.748;2023-05-20T06:54:05;101058.69;;;12.92;100.00
34925;BME280;21130;51.728;8.748;2023-05-20T06:56:32;101060.16;;;12.95;100.00
34925;BME280;21130;51.728;8.748;2023-05-20T06:58:58;101050.69;;;12.96;100.00
34925;BME280;21130;51.728;8.748;2023-05-20T07:01:24;101051.47;;;13.08;100.00
34925;BME280;21130;51.728;8.748;2023-05-20T07:03:51;101051.69;;;13.18;100.00
34925;BME280;21130;51.728;8.748;2023-05-20T07:06:19;101042.81;;;13.33;100.00
34925;BME280;21130;51.728;8.748;2023-05-20T07:08:45;101037.94;;;13.57;100.00
34925;BME280;21130;51.728;8.748;2023-05-20T07:11:11;101041.25;;;13.71;100.00
34925;BME280;21130;51.728;8.748;2023-05-20T07:13:38;101038.03;;;13.96;100.00
34925;BME280;21130;51.728;8.748;2023-05-20T07:16:04;101039.22;;;13.83;100.00
34925;BME280;21130;51.728;8.748;2023-05-20T07:18:31;101036.88;;;13.92;100.00
34925;BME280;21130;51.728;8.748;2023-05-20T07:20:57;101034.91;;;14.10;100.00
34925;BME280;21130;51.728;8.748;2023-05-20T07:23:25;101028.19;;;14.27;100.00
34925;BME280;21130;51.728;8.748;2023-05-20T07:25:52;101025.44;;;14.50;100.00
34925;BME280;21130;51.728;8.748;2023-05-20T07:28:19;101019.56;;;14.68;100.00
34925;BME280;21130;51.728;8.748;2023-05-20T07:30:46;101020.53;;;14.79;100.00
34925;BME280;21130;51.728;8.748;2023-05-20T07:33:14;101014.63;;;14.75;100.00
34925;BME280;21130;51.728;8.748;2023-05-20T07:35:41;101013.31;;;15.05;100.00
34925;BME280;21130;51.728;8.748;2023-05-20T07:38:07;101010.63;;;15.47;100.00
34925;BME280;21130;51.728;8.748;2023-05-20T07:40:35;100994.16;;;15.78;100.00
34925;BME280;21130;51.728;8.748;2023-05-20T07:43:03;101002.03;;;15.81;100.00
34925;BME280;21130;51.728;8.748;2023-05-20T07:45:29;101000.97;;;15.60;100.00
34925;BME280;21130;51.728;8.748;2023-05-20T07:47:55;101000.22;;;15.70;100.00
34925;BME280;21130;51.728;8.748;2023-05-20T07:50:22;100996.34;;;15.71;100.00
34925;BME280;21130;51.728;8.748;2023-05-20T07:52:48;100992.72;;;15.70;100.00
34925;BME280;21130;51.728;8.748;2023-05-20T07:55:15;100991.09;;;15.80;100.00
34925;BME280;21130;51.728;8.748;2023-05-20T07:57:43;100993.38;;;15.83;100.00
34925;BME280;21130;51.728;8.748;2023-05-20T08:00:11;100990.16;;;16.06;100.00
34925;BME280;21130;51.728;8.748;2023-05-20T08:02:37;101005.66;;;16.19;100.00
34925;BME280;21130;51.728;8.748;2023-05-20T08:05:05;100999.75;;;16.15;100.00
34925;BME280;21130;51.728;8.748;2023-05-20T08:07:31;101006.69;;;16.50;100.00
34925;BME280;21130;51.728;8.748;2023-05-20T08:09:58;101009.03;;;16.21;100.00
34925;BME280;21130;51.728;8.748;2023-05-20T08:12:25;101006.34;;;16.41;100.00
34925;BME280;21130;51.728;8.748;2023-05-20T08:14:53;101008.13;;;16.58;100.00
34925;BME280;21130;51.728;8.748;2023-05-20T08:17:20;101002.72;;;16.46;100.00
34925;BME280;21130;51.728;8.748;2023-05-20T08:19:46;101000.03;;;16.67;100.00
34925;BME280;21130;51.728;8.748;2023-05-20T08:22:12;100997.94;;;16.99;100.00
34925;BME280;21130;51.728;8.748;2023-05-20T08:24:39;100994.03;;;17.11;100.00
34925;BME280;21130;51.728;8.748;2023-05-20T08:27:05;100999.34;;;17.07;100.00
34925;BME280;21130;51.728;8.748;2023-05-20T08:29:32;100979.50;;;17.39;100.00
34925;BME280;21130;51.728;8.748;2023-05-20T08:31:59;100987.06;;;17.23;100.00
34925;BME280;21130;51.728;8.748;2023-05-20T08:34:26;100990.13;;;17.27;100.00
34925;BME280;21130;51.728;8.748;2023-05-20T08:36:52;100987.34;;;17.27;100.00
34925;BME280;21130;51.728;8.748;2023-05-20T08:39:19;100977.81;;;17.38;100.00
34925;BME280;21130;51.728;8.748;2023-05-20T08:41:46;100983.09;;;17.04;100.00
34925;BME280;21130;51.728;8.748;2023-05-20T08:44:13;100979.50;;;17.34;100.00
34925;BME280;21130;51.728;8.748;2023-05-20T08:46:40;100983.97;;;17.45;100.00
34925;BME280;21130;51.728;8.748;2023-05-20T08:49:08;100985.66;;;17.36;100.00
34925;BME280;21130;51.728;8.748;2023-05-20T08:51:35;100985.66;;;17.36;100.00
34925;BME280;21130;51.728;8.748;2023-05-20T08:54:02;100986.81;;;17.71;100.00
34925;BME280;21130;51.728;8.748;2023-05-20T08:56:30;100986.25;;;17.54;100.00
34925;BME280;21130;51.728;8.748;2023-05-20T08:58:56;100983.69;;;17.26;100.00
34925;BME280;21130;51.728;8.748;2023-05-20T09:01:23;100989.03;;;17.38;100.00
34925;BME280;21130;51.728;8.748;2023-05-20T09:03:50;100990.69;;;17.24;100.00
34925;BME280;21130;51.728;8.748;2023-05-20T09:06:18;100992.88;;;17.01;100.00
34925;BME280;21130;51.728;8.748;2023-05-20T09:08:47;100989.53;;;17.15;100.00
34925;BME280;21130;51.728;8.748;2023-05-20T09:11:13;100990.63;;;16.93;100.00
34925;BME280;21130;51.728;8.748;2023-05-20T09:13:40;100988.44;;;17.11;100.00
34925;BME280;21130;51.728;8.748;2023-05-20T09:16:08;100979.75;;;17.22;100.00
34925;BME280;21130;51.728;8.748;2023-05-20T09:18:37;100985.66;;;17.36;100.00
34925;BME280;21130;51.728;8.748;2023-05-20T09:21:05;100976.69;;;17.60;100.00
34925;BME280;21130;51.728;8.748;2023-05-20T09:23:35;100976.16;;;17.99;100.00
34925;BME280;21130;51.728;8.748;2023-05-20T09:26:02;100972.47;;;18.19;100.00
34925;BME280;21130;51.728;8.748;2023-05-20T09:28:29;100982.28;;;18.21;100.00
34925;BME280;21130;51.728;8.748;2023-05-20T09:30:56;100977.81;;;18.05;100.00
34925;BME280;21130;51.728;8.748;2023-05-20T09:33:26;100975.53;;;18.27;100.00
34925;BME280;21130;51.728;8.748;2023-05-20T09:36:01;100973.88;;;18.21;100.00
34925;BME280;21130;51.728;8.748;2023-05-20T09:38:28;100979.69;;;18.40;100.00
34925;BME280;21130;51.728;8.748;2023-05-20T09:41:02;100981.69;;;18.34;100.00
34925;BME280;21130;51.728;8.748;2023-05-20T09:43:33;100971.66;;;17.98;100.00
34925;BME280;21130;51.728;8.748;2023-05-20T09:46:00;100975.88;;;17.85;100.00
34925;BME280;21130;51.728;8.748;2023-05-20T09:48:28;100975.03;;;17.84;100.00
34925;BME280;21130;51.728;8.748;2023-05-20T09:50:55;100976.69;;;17.96;100.00
34925;BME280;21130;51.728;8.748;2023-05-20T09:53:25;100970.22;;;18.00;100.00
34925;BME280;21130;51.728;8.748;2023-05-20T09:55:52;100976.09;;;18.19;100.00
34925;BME280;21130;51.728;8.748;2023-05-20T09:58:21;100974.56;;;18.57;100.00
34925;BME280;21130;51.728;8.748;2023-05-20T10:00:48;100966.06;;;18.78;100.00
34925;BME280;21130;51.728;8.748;2023-05-20T10:03:14;100966.66;;;18.70;100.00
34925;BME280;21130;51.728;8.748;2023-05-20T10:05:45;100974.19;;;18.90;100.00
34925;BME280;21130;51.728;8.748;2023-05-20T10:08:52;100954.94;;;18.47;100.00
34925;BME280;21130;51.728;8.748;2023-05-20T10:11:47;100965.22;;;18.83;100.00
34925;BME280;21130;51.728;8.748;2023-05-20T10:14:43;100961.47;;;18.97;97.85
34925;BME280;21130;51.728;8.748;2023-05-20T10:17:16;100960.63;;;19.02;100.00
34925;BME280;21130;51.728;8.748;2023-05-20T10:19:46;100970.97;;;19.12;99.10
34925;BME280;21130;51.728;8.748;2023-05-20T10:22:24;100969.44;;;19.30;95.74
34925;BME280;21130;51.728;8.748;2023-05-20T10:24:57;100958.41;;;19.33;95.83
34925;BME280;21130;51.728;8.748;2023-05-20T10:27:23;100964.47;;;19.51;97.16
34925;BME280;21130;51.728;8.748;2023-05-20T10:29:54;100961.31;;;19.62;90.79
34925;BME280;21130;51.728;8.748;2023-05-20T10:32:24;100967.28;;;19.51;88.60
34925;BME280;21130;51.728;8.748;2023-05-20T10:34:51;100961.06;;;19.19;97.18
34925;BME280;21130;51.728;8.748;2023-05-20T10:37:22;100955.06;;;18.87;94.20
34925;BME280;21130;51.728;8.748;2023-05-20T10:39:49;100951.88;;;19.09;96.43
34925;BME280;21130;51.728;8.748;2023-05-20T10:42:26;100960.16;;;18.74;97.39
34925;BME280;21130;51.728;8.748;2023-05-20T10:44:55;100954.53;;;18.85;95.77
34925;BME280;21130;51.728;8.748;2023-05-20T10:47:21;100949.19;;;18.83;100.00
34925;BME280;21130;51.728;8.748;2023-05-20T10:49:48;100947.16;;;18.94;93.61
34925;BME280;21130;51.728;8.748;2023-05-20T10:52:16;100946.22;;;19.09;99.06
34925;BME280;21130;51.728;8.748;2023-05-20T10:54:43;100936.47;;;18.91;97.01
34925;BME280;21130;51.728;8.748;2023-05-20T10:57:10;100939.69;;;18.69;96.48
34925;BME280;21130;51.728;8.748;2023-05-20T10:59:37;100944.44;;;18.78;100.00
34925;BME280;21130;51.728;8.748;2023-05-20T11:02:04;100941.06;;;18.71;100.00
34925;BME280;21130;51.728;8.748;2023-05-20T11:04:31;100936.00;;;18.73;97.82
34925;BME280;21130;51.728;8.748;2023-05-20T11:06:57;100940.84;;;18.57;99.65
34925;BME280;21130;51.728;8.748;2023-05-20T11:09:24;100936.69;;;18.45;100.00
34925;BME280;21130;51.728;8.748;2023-05-20T11:11:52;100930.19;;;18.49;100.00
34925;BME280;21130;51.728;8.748;2023-05-20T11:14:18;100923.66;;;18.69;97.80
34925;BME280;21130;51.728;8.748;2023-05-20T11:16:45;100929.25;;;18.80;100.00
34925;BME280;21130;51.728;8.748;2023-05-20T11:19:15;100928.47;;;18.64;97.04
34925;BME280;21130;51.728;8.748;2023-05-20T11:21:43;100925.47;;;18.40;99.68
34925;BME280;21130;51.728;8.748;2023-05-20T11:24:10;100923.00;;;18.18;100.00
34925;BME280;21130;51.728;8.748;2023-05-20T11:26:36;100924.47;;;18.00;100.00
34925;BME280;21130;51.728;8.748;2023-05-20T11:29:03;100922.25;;;17.61;100.00
34925;BME280;21130;51.728;8.748;2023-05-20T11:31:30;100907.38;;;17.76;100.00
34925;BME280;21130;51.728;8.748;2023-05-20T11:33:58;100922.50;;;17.95;100.00
34925;BME280;21130;51.728;8.748;2023-05-20T11:36:27;100918.28;;;17.98;100.00
34925;BME280;21130;51.728;8.748;2023-05-20T11:38:55;100903.72;;;17.65;100.00
34925;BME280;21130;51.728;8.748;2023-05-20T11:41:23;100908.78;;;17.73;100.00
34925;BME280;21130;51.728;8.748;2023-05-20T11:50:33;100910.47;;;17.48;100.00
34925;BME280;21130;51.728;8.748;2023-05-20T11:53:02;100901.50;;;17.41;100.00
34925;BME280;21130;51.728;8.748;2023-05-20T11:55:30;100903.16;;;17.63;100.00
34925;BME280;21130;51.728;8.748;2023-05-20T11:57:58;100898.66;;;17.87;100.00
34925;BME280;21130;51.728;8.748;2023-05-20T12:00:25;100891.31;;;18.02;100.00
34925;BME280;21130;51.728;8.748;2023-05-20T12:02:52;100885.59;;;18.27;100.00
34925;BME280;21130;51.728;8.748;2023-05-20T12:05:28;100878.75;;;18.54;100.00
34925;BME280;21130;51.728;8.748;2023-05-20T12:08:14;100875.81;;;18.74;100.00
34925;BME280;21130;51.728;8.748;2023-05-20T12:10:41;100874.31;;;18.38;100.00
34925;BME280;21130;51.728;8.748;2023-05-20T12:13:09;100875.44;;;18.42;100.00
34925;BME280;21130;51.728;8.748;2023-05-20T12:15:37;100891.97;;;18.53;100.00
34925;BME280;21130;51.728;8.748;2023-05-20T12:18:04;100891.50;;;18.31;100.00
34925;BME280;21130;51.728;8.748;2023-05-20T12:20:31;100886.38;;;18.48;100.00
34925;BME280;21130;51.728;8.748;2023-05-20T12:22:58;100886.06;;;18.50;100.00
34925;BME280;21130;51.728;8.748;2023-05-20T12:25:26;100877.75;;;18.24;100.00
34925;BME280;21130;51.728;8.748;2023-05-20T12:27:54;100878.22;;;18.47;100.00
34925;BME280;21130;51.728;8.748;2023-05-20T12:30:21;100867.38;;;18.74;100.00
34925;BME280;21130;51.728;8.748;2023-05-20T12:32:49;100874.63;;;19.25;100.00
34925;BME280;21130;51.728;8.748;2023-05-20T12:35:16;100862.91;;;19.47;99.09
34925;BME280;21130;51.728;8.748;2023-05-20T12:37:42;100859.09;;;19.91;91.06
34925;BME280;21130;51.728;8.748;2023-05-20T12:40:10;100872.16;;;20.30;92.93
34925;BME280;21130;51.728;8.748;2023-05-20T12:42:39;100870.28;;;20.44;87.54
34925;BME280;21130;51.728;8.748;2023-05-20T12:45:07;100870.50;;;20.05;87.54
34925;BME280;21130;51.728;8.748;2023-05-20T12:47:34;100857.75;;;19.83;87.39
34925;BME280;21130;51.728;8.748;2023-05-20T12:50:02;100867.78;;;19.95;90.12
34925;BME280;21130;51.728;8.748;2023-05-20T12:52:28;100859.75;;;19.54;91.56
34925;BME280;21130;51.728;8.748;2023-05-20T12:54:55;100862.28;;;19.21;95.99